首页
METAR-TAF:

METAR-TAF

机场 :

斯特拉斯堡国际机场

斯特拉斯堡, 法国

纬度: 48-33N, 经度: 007-38E, 海拔: 153米

当前天气观测

该预报发布于20分钟前的10:30 UTC
风速8节,风向,在南转西南之间变化
温度 15°C
湿度 63%
气压 1011 hPa
能见度10公里或以上
1500米以下无云,无积雨云

METAR: LFST 281030Z AUTO 17008KT 100V200 CAVOK 15/08 Q1011 NOSIG

时间: 12:50 (10:50 UTC)

预报

该预报发布于4小时和56分钟前的05:54 UTC
预报有效从28日的 06点(UTC)到 29日的 06点(UTC)
风速2节,风向多变
能见度10公里或以上
1500米以下无云,无积雨云
几率 40% :
短暂存在
从 28日的 06点(UTC)到 28日的 09点(UTC)
能見度: 3000
多云层高于200英尺
轻雾
几率 30% :
短暂存在
从 28日的 06点(UTC)到 28日的 09点(UTC)
能見度: 0800
成为
从 28日的 15点(UTC)到 28日的 17点(UTC)
小雨
成为
从 28日的 19点(UTC)到 28日的 21点(UTC)
风速10节,风向
短暂存在
从 28日的 21点(UTC)到 29日的 03点(UTC)
能見度: 3000
多云层高于600英尺

TAF: LFST 280554Z 2806/2906 VRB02KT CAVOK PROB40 TEMPO 2806/2809 3000 BR BKN002 PROB30 TEMPO 2806/2809 0800 FG VV/// BECMG 2815/2817 -RA BECMG 2819/2821 18010KT TEMPO 2821/2903 3000 RA BKN006

超过4000个机场的气象观测和天气预报(METAR&TAF报告)。

可查询的气象台以黄色和红色小点在地图上表示。

将鼠标移到小点上方,可查看气象台名称。

然后点击查看天气观测和预报。

如需切换地图:点击带黑十字的绿色按钮放大地图;点击带横线的绿色按钮缩小地图;或者点击绿色箭头查看邻近地区的地图。


METAR-TAF: